Woodruff, WI (54568)

5:26 PM CDT on May 22, 2015 (GMT -0500)
WIDOT | | Change Station
CLOSE
Current Station
Personal Weather Station
Location: Minocqua, WI
Elevation: 1621 ft
Nearby Weather Stations
Active Advisory: Frost Advisory

Elev 1621 ft 45.89 °N, 89.68 °W | Updated 26 minutes ago

Clear
Clear
71 °F
Feels Like 74 °F
N
7
Wind Variable Wind from NNE
Gusts 14.0 mph

Today
High -- | Low -- °F
--% Chance of Precip.
Yesterday
High -- | Low -- °F
Precip. -- in
5:19 AM 8:31 PM
Waxing Crescent, 24% visible
Pressure 30.21 in
Visibility 10.0 miles
Clouds Clear
Heat Index 74 °F
Dew Point 24 °F
Humidity 17%
Rainfall in
Snow Depth Not available.
UV 3 out of 12
Pollen 8.90 out of 12
Air Quality Not available.
Flu Activity Sporadic
METAR KARV 222215Z AUTO 32003KT 10SM CLR 19/M04 A3021 RMK AO2 T01871039

More Conditions Fewer Conditions

Pressure 30.21 in
Visibility 10.0 miles
Clouds Clear
Heat Index 74 °F
Dew Point 24 °F
Humidity 17%
Rainfall in
Snow Depth Not available.
UV 3 out of 12
Pollen 8.90 out of 12
Air Quality Not available.
Flu Activity Sporadic
METAR KARV 222215Z AUTO 32003KT 10SM CLR 19/M04 A3021 RMK AO2 T01871039

More Conditions Fewer Conditions

10-Day Weather Forecast

Almanac

Astronomy

May. 22, 2015 Rise Set
Actual Time
Civil Twilight
Nautical Twilight
Astronomical Twilight
Moon
Length of Visible Light
Length of Day
Tomorrow will be .
, % of the Moon is Illuminated

Today's Extremes

State Highs State Lows

Community

WunderPhotos

Upload Photos

1,823,324 photos uploaded!

WunderBlogs® & News

Nearby

Air Quality

  Air Quality AQ Index Pollutant
Not available.

Snow Depth

Station Depth Elevation

Earthquake Activity

City Distance Mag. Time & Date
Minimum magnitude displayed is 2.5.

Coastal Water Temperatures

Place Temperature

Stations

Nearby Weather Stations

Station Location Temp. Windchill Dew Point Humidity Wind Precip. Elev Updated Type
                   
Frost Advisory
Statement as of 2:55 PM CDT on May 22, 2015

... Frost advisory in effect from 3 am to 7 am CDT Saturday...

The National Weather Service in Green Bay has issued a frost
advisory... which is in effect from 3 am to 7 am CDT Saturday.

* Temperature... temperatures are expected to drop into the middle
to upper 30s tonight.

* Impacts... sensitive vegetation or outdoor plants may be damaged
by frost if left unprotected.

Precautionary/preparedness actions...

A frost advisory means that frost is expected. Sensitive outdoor
plants may be killed if left uncovered.



AK